sensor_id;sensor_type;location;lat;lon;timestamp;pressure;altitude;pressure_sealevel;temperature;humidity
16664;BME280;8445;51.270;9.434;2023-04-10T00:00:02;100233.25;;;3.92;54.27
16664;BME280;8445;51.270;9.434;2023-04-10T00:02:30;100230.66;;;3.91;54.96
16664;BME280;8445;51.270;9.434;2023-04-10T00:04:55;100237.97;;;3.82;54.15
16664;BME280;8445;51.270;9.434;2023-04-10T00:07:21;100240.81;;;3.75;54.26
16664;BME280;8445;51.270;9.434;2023-04-10T00:09:46;100241.78;;;3.72;55.18
16664;BME280;8445;51.270;9.434;2023-04-10T00:12:12;100228.75;;;3.70;55.01
16664;BME280;8445;51.270;9.434;2023-04-10T00:14:38;100238.59;;;3.62;55.23
16664;BME280;8445;51.270;9.434;2023-04-10T00:17:04;100241.22;;;3.62;55.34
16664;BME280;8445;51.270;9.434;2023-04-10T00:19:29;100243.75;;;3.65;54.80
16664;BME280;8445;51.270;9.434;2023-04-10T00:21:55;100244.19;;;3.78;55.72
16664;BME280;8445;51.270;9.434;2023-04-10T00:24:21;100243.03;;;3.87;55.37
16664;BME280;8445;51.270;9.434;2023-04-10T00:26:46;100240.31;;;3.90;55.22
16664;BME280;8445;51.270;9.434;2023-04-10T00:29:12;100240.00;;;3.99;55.70
16664;BME280;8445;51.270;9.434;2023-04-10T00:31:37;100231.13;;;4.04;55.94
16664;BME280;8445;51.270;9.434;2023-04-10T00:34:03;100236.00;;;4.13;55.91
16664;BME280;8445;51.270;9.434;2023-04-10T00:36:28;100228.81;;;4.20;55.77
16664;BME280;8445;51.270;9.434;2023-04-10T00:38:53;100238.50;;;4.16;55.48
16664;BME280;8445;51.270;9.434;2023-04-10T00:41:19;100231.91;;;4.06;55.37
16664;BME280;8445;51.270;9.434;2023-04-10T00:43:44;100226.25;;;3.93;55.73
16664;BME280;8445;51.270;9.434;2023-04-10T00:46:10;100220.84;;;3.97;55.77
16664;BME280;8445;51.270;9.434;2023-04-10T00:48:36;100226.41;;;4.13;56.27
16664;BME280;8445;51.270;9.434;2023-04-10T00:51:03;100233.03;;;4.24;55.05
16664;BME280;8445;51.270;9.434;2023-04-10T00:53:29;100234.50;;;4.31;55.10
16664;BME280;8445;51.270;9.434;2023-04-10T00:55:55;100223.81;;;4.37;54.46
16664;BME280;8445;51.270;9.434;2023-04-10T00:58:21;100220.09;;;4.43;55.07
16664;BME280;8445;51.270;9.434;2023-04-10T01:00:47;100227.97;;;4.43;55.30
16664;BME280;8445;51.270;9.434;2023-04-10T01:03:14;100218.91;;;4.28;54.98
16664;BME280;8445;51.270;9.434;2023-04-10T01:05:46;100229.19;;;4.09;55.34
16664;BME280;8445;51.270;9.434;2023-04-10T01:11:09;100232.16;;;3.73;56.23
16664;BME280;8445;51.270;9.434;2023-04-10T01:16:19;100233.00;;;3.48;56.60
16664;BME280;8445;51.270;9.434;2023-04-10T01:18:59;100240.34;;;3.36;57.25
16664;BME280;8445;51.270;9.434;2023-04-10T01:21:33;100229.16;;;3.31;55.94
16664;BME280;8445;51.270;9.434;2023-04-10T01:24:44;100233.50;;;3.32;55.97
16664;BME280;8445;51.270;9.434;2023-04-10T01:29:47;100225.66;;;3.32;56.54
16664;BME280;8445;51.270;9.434;2023-04-10T01:32:19;100225.59;;;3.34;56.29
16664;BME280;8445;51.270;9.434;2023-04-10T01:34:49;100221.31;;;3.31;56.05
16664;BME280;8445;51.270;9.434;2023-04-10T01:37:29;100226.66;;;3.28;57.24
16664;BME280;8445;51.270;9.434;2023-04-10T01:40:03;100226.03;;;3.20;57.46
16664;BME280;8445;51.270;9.434;2023-04-10T01:42:38;100218.56;;;3.07;56.22
16664;BME280;8445;51.270;9.434;2023-04-10T01:45:06;100226.56;;;3.03;57.21
16664;BME280;8445;51.270;9.434;2023-04-10T01:47:33;100231.13;;;2.96;56.85
16664;BME280;8445;51.270;9.434;2023-04-10T01:49:59;100228.56;;;2.94;57.44
16664;BME280;8445;51.270;9.434;2023-04-10T01:52:27;100220.19;;;2.83;57.04
16664;BME280;8445;51.270;9.434;2023-04-10T01:55:06;100226.47;;;2.77;57.27
16664;BME280;8445;51.270;9.434;2023-04-10T01:57:40;100223.97;;;2.73;56.61
16664;BME280;8445;51.270;9.434;2023-04-10T02:00:06;100219.72;;;2.70;57.45
16664;BME280;8445;51.270;9.434;2023-04-10T02:02:40;100218.16;;;2.64;57.47
16664;BME280;8445;51.270;9.434;2023-04-10T02:05:07;100218.34;;;2.57;58.11
16664;BME280;8445;51.270;9.434;2023-04-10T02:07:46;100216.91;;;2.46;58.31
16664;BME280;8445;51.270;9.434;2023-04-10T02:10:20;100215.38;;;2.39;57.03
16664;BME280;8445;51.270;9.434;2023-04-10T02:12:56;100216.31;;;2.36;59.03
16664;BME280;8445;51.270;9.434;2023-04-10T02:15:25;100221.78;;;2.29;57.61
16664;BME280;8445;51.270;9.434;2023-04-10T02:17:53;100229.69;;;2.26;58.23
16664;BME280;8445;51.270;9.434;2023-04-10T02:20:19;100216.81;;;2.19;58.75
16664;BME280;8445;51.270;9.434;2023-04-10T02:22:45;100223.69;;;2.22;58.61
16664;BME280;8445;51.270;9.434;2023-04-10T02:25:11;100214.88;;;2.26;57.56
16664;BME280;8445;51.270;9.434;2023-04-10T02:27:38;100217.28;;;2.34;57.25
16664;BME280;8445;51.270;9.434;2023-04-10T02:30:04;100222.31;;;2.40;57.46
16664;BME280;8445;51.270;9.434;2023-04-10T02:32:32;100227.44;;;2.43;57.54
16664;BME280;8445;51.270;9.434;2023-04-10T02:34:58;100217.81;;;2.45;57.73
16664;BME280;8445;51.270;9.434;2023-04-10T02:37:24;100218.84;;;2.40;57.09
16664;BME280;8445;51.270;9.434;2023-04-10T02:39:51;100211.94;;;2.37;57.45
16664;BME280;8445;51.270;9.434;2023-04-10T02:42:19;100217.97;;;2.39;57.07
16664;BME280;8445;51.270;9.434;2023-04-10T02:44:44;100217.00;;;2.43;57.23
16664;BME280;8445;51.270;9.434;2023-04-10T02:47:11;100217.94;;;2.41;58.14
16664;BME280;8445;51.270;9.434;2023-04-10T02:49:40;100213.47;;;2.44;57.54
16664;BME280;8445;51.270;9.434;2023-04-10T02:52:11;100212.47;;;2.50;57.39
16664;BME280;8445;51.270;9.434;2023-04-10T02:54:36;100216.66;;;2.56;57.66
16664;BME280;8445;51.270;9.434;2023-04-10T02:57:02;100206.03;;;2.62;58.11
16664;BME280;8445;51.270;9.434;2023-04-10T02:59:29;100207.81;;;2.60;58.08
16664;BME280;8445;51.270;9.434;2023-04-10T03:01:55;100201.75;;;2.59;58.10
16664;BME280;8445;51.270;9.434;2023-04-10T03:04:20;100205.38;;;2.54;58.53
16664;BME280;8445;51.270;9.434;2023-04-10T03:06:46;100209.22;;;2.42;58.20
16664;BME280;8445;51.270;9.434;2023-04-10T03:09:11;100200.09;;;2.27;58.29
16664;BME280;8445;51.270;9.434;2023-04-10T03:11:37;100200.50;;;2.11;58.22
16664;BME280;8445;51.270;9.434;2023-04-10T03:14:03;100196.34;;;2.04;58.92
16664;BME280;8445;51.270;9.434;2023-04-10T03:16:28;100195.63;;;1.99;58.61
16664;BME280;8445;51.270;9.434;2023-04-10T03:18:58;100203.59;;;1.94;58.75
16664;BME280;8445;51.270;9.434;2023-04-10T03:21:23;100197.56;;;1.90;58.62
16664;BME280;8445;51.270;9.434;2023-04-10T03:23:49;100201.88;;;1.93;59.10
16664;BME280;8445;51.270;9.434;2023-04-10T03:26:16;100193.06;;;1.97;59.70
16664;BME280;8445;51.270;9.434;2023-04-10T03:28:42;100188.59;;;2.01;59.16
16664;BME280;8445;51.270;9.434;2023-04-10T03:31:09;100190.31;;;2.02;58.99
16664;BME280;8445;51.270;9.434;2023-04-10T03:33:37;100188.75;;;1.95;59.70
16664;BME280;8445;51.270;9.434;2023-04-10T03:36:03;100194.19;;;1.87;58.77
16664;BME280;8445;51.270;9.434;2023-04-10T03:38:31;100182.09;;;1.84;58.27
16664;BME280;8445;51.270;9.434;2023-04-10T03:40:57;100185.50;;;1.86;58.73
16664;BME280;8445;51.270;9.434;2023-04-10T03:43:24;100178.56;;;1.85;58.49
16664;BME280;8445;51.270;9.434;2023-04-10T03:45:50;100175.06;;;1.86;58.52
16664;BME280;8445;51.270;9.434;2023-04-10T03:48:16;100179.44;;;1.86;57.72
16664;BME280;8445;51.270;9.434;2023-04-10T03:50:44;100173.34;;;1.85;58.89
16664;BME280;8445;51.270;9.434;2023-04-10T03:53:10;100177.72;;;1.85;58.48
16664;BME280;8445;51.270;9.434;2023-04-10T03:55:38;100176.88;;;1.84;58.09
16664;BME280;8445;51.270;9.434;2023-04-10T03:58:05;100172.50;;;1.85;59.19
16664;BME280;8445;51.270;9.434;2023-04-10T04:00:31;100169.91;;;1.85;59.33
16664;BME280;8445;51.270;9.434;2023-04-10T04:03:06;100182.00;;;1.87;58.79
16664;BME280;8445;51.270;9.434;2023-04-10T04:05:51;100176.88;;;1.84;58.37
16664;BME280;8445;51.270;9.434;2023-04-10T04:08:36;100171.41;;;1.93;59.41
16664;BME280;8445;51.270;9.434;2023-04-10T04:11:05;100174.72;;;2.00;59.04
16664;BME280;8445;51.270;9.434;2023-04-10T04:14:00;100171.47;;;1.90;59.52
16664;BME280;8445;51.270;9.434;2023-04-10T04:16:55;100159.47;;;1.85;58.98
16664;BME280;8445;51.270;9.434;2023-04-10T04:19:33;100158.75;;;1.80;59.29
16664;BME280;8445;51.270;9.434;2023-04-10T04:22:24;100163.19;;;1.76;59.21
16664;BME280;8445;51.270;9.434;2023-04-10T04:25:08;100165.22;;;1.65;59.61
16664;BME280;8445;51.270;9.434;2023-04-10T04:28:04;100160.00;;;1.65;59.71
16664;BME280;8445;51.270;9.434;2023-04-10T04:30:32;100167.03;;;1.62;59.81
16664;BME280;8445;51.270;9.434;2023-04-10T04:33:13;100166.97;;;1.64;60.12
16664;BME280;8445;51.270;9.434;2023-04-10T04:35:51;100173.94;;;1.63;59.88
16664;BME280;8445;51.270;9.434;2023-04-10T04:38:42;100168.75;;;1.62;59.55
16664;BME280;8445;51.270;9.434;2023-04-10T04:41:27;100168.72;;;1.63;59.75
16664;BME280;8445;51.270;9.434;2023-04-10T04:44:13;100165.16;;;1.68;59.33
16664;BME280;8445;51.270;9.434;2023-04-10T04:46:58;100166.59;;;1.78;59.13
16664;BME280;8445;51.270;9.434;2023-04-10T04:49:26;100174.31;;;1.83;59.25
16664;BME280;8445;51.270;9.434;2023-04-10T04:52:12;100169.78;;;1.89;59.43
16664;BME280;8445;51.270;9.434;2023-04-10T04:54:44;100180.25;;;1.88;59.63
16664;BME280;8445;51.270;9.434;2023-04-10T04:57:29;100181.88;;;1.92;59.22
16664;BME280;8445;51.270;9.434;2023-04-10T05:00:13;100176.63;;;1.93;59.83
16664;BME280;8445;51.270;9.434;2023-04-10T05:02:50;100176.69;;;1.92;59.70
16664;BME280;8445;51.270;9.434;2023-04-10T05:05:34;100174.88;;;1.94;60.67
16664;BME280;8445;51.270;9.434;2023-04-10T05:08:13;100177.31;;;2.00;60.25
16664;BME280;8445;51.270;9.434;2023-04-10T05:10:59;100183.13;;;2.10;60.49
16664;BME280;8445;51.270;9.434;2023-04-10T05:13:51;100183.69;;;2.21;59.90
16664;BME280;8445;51.270;9.434;2023-04-10T05:16:33;100183.47;;;2.29;59.56
16664;BME280;8445;51.270;9.434;2023-04-10T05:19:31;100190.78;;;2.46;60.32
16664;BME280;8445;51.270;9.434;2023-04-10T05:22:19;100183.50;;;2.58;60.51
16664;BME280;8445;51.270;9.434;2023-04-10T05:24:52;100188.59;;;2.62;60.58
16664;BME280;8445;51.270;9.434;2023-04-10T05:27:27;100183.13;;;2.70;60.47
16664;BME280;8445;51.270;9.434;2023-04-10T05:30:24;100185.66;;;2.73;60.47
16664;BME280;8445;51.270;9.434;2023-04-10T05:33:19;100188.09;;;2.79;60.99
16664;BME280;8445;51.270;9.434;2023-04-10T05:36:09;100183.59;;;2.83;60.38
16664;BME280;8445;51.270;9.434;2023-04-10T05:38:55;100190.41;;;2.89;60.02
16664;BME280;8445;51.270;9.434;2023-04-10T05:41:44;100190.97;;;2.99;60.17
16664;BME280;8445;51.270;9.434;2023-04-10T05:44:25;100202.78;;;3.10;61.12
16664;BME280;8445;51.270;9.434;2023-04-10T05:47:13;100190.22;;;3.22;60.56
16664;BME280;8445;51.270;9.434;2023-04-10T05:49:39;100199.41;;;3.35;60.47
16664;BME280;8445;51.270;9.434;2023-04-10T05:52:33;100194.50;;;3.51;60.39
16664;BME280;8445;51.270;9.434;2023-04-10T05:55:11;100189.75;;;3.63;61.03
16664;BME280;8445;51.270;9.434;2023-04-10T05:58:13;100193.72;;;3.75;60.31
16664;BME280;8445;51.270;9.434;2023-04-10T06:01:00;100203.75;;;3.87;60.58
16664;BME280;8445;51.270;9.434;2023-04-10T06:03:46;100194.69;;;3.97;60.47
16664;BME280;8445;51.270;9.434;2023-04-10T06:06:15;100200.41;;;4.09;60.07
16664;BME280;8445;51.270;9.434;2023-04-10T06:08:41;100201.81;;;4.18;60.70
16664;BME280;8445;51.270;9.434;2023-04-10T06:11:07;100199.88;;;4.23;60.51
16664;BME280;8445;51.270;9.434;2023-04-10T06:13:33;100190.91;;;4.30;60.28
16664;BME280;8445;51.270;9.434;2023-04-10T06:16:00;100193.09;;;4.41;60.81
16664;BME280;8445;51.270;9.434;2023-04-10T06:18:26;100195.44;;;4.49;60.38
16664;BME280;8445;51.270;9.434;2023-04-10T06:20:52;100194.28;;;4.56;60.64
16664;BME280;8445;51.270;9.434;2023-04-10T06:23:18;100195.72;;;4.65;60.33
16664;BME280;8445;51.270;9.434;2023-04-10T06:25:43;100196.09;;;4.78;60.77
16664;BME280;8445;51.270;9.434;2023-04-10T06:28:09;100190.63;;;4.84;60.59
16664;BME280;8445;51.270;9.434;2023-04-10T06:30:35;100196.34;;;4.94;60.43
16664;BME280;8445;51.270;9.434;2023-04-10T06:33:03;100186.22;;;5.07;60.47
16664;BME280;8445;51.270;9.434;2023-04-10T06:35:31;100183.75;;;5.24;60.50
16664;BME280;8445;51.270;9.434;2023-04-10T06:37:57;100180.31;;;5.44;60.93
16664;BME280;8445;51.270;9.434;2023-04-10T06:40:22;100174.28;;;5.63;60.58
16664;BME280;8445;51.270;9.434;2023-04-10T06:42:48;100173.50;;;5.82;60.33
16664;BME280;8445;51.270;9.434;2023-04-10T06:45:21;100166.34;;;6.06;60.58
16664;BME280;8445;51.270;9.434;2023-04-10T06:47:50;100162.69;;;6.29;60.61
16664;BME280;8445;51.270;9.434;2023-04-10T06:50:16;100156.41;;;6.51;60.15
16664;BME280;8445;51.270;9.434;2023-04-10T06:52:42;100158.97;;;6.72;60.14
16664;BME280;8445;51.270;9.434;2023-04-10T06:55:08;100157.97;;;6.93;60.24
16664;BME280;8445;51.270;9.434;2023-04-10T06:57:33;100156.53;;;7.23;59.90
16664;BME280;8445;51.270;9.434;2023-04-10T06:59:59;100161.63;;;7.61;60.30
16664;BME280;8445;51.270;9.434;2023-04-10T07:02:24;100157.94;;;7.99;59.89
16664;BME280;8445;51.270;9.434;2023-04-10T07:04:50;100160.47;;;8.34;60.06
16664;BME280;8445;51.270;9.434;2023-04-10T07:07:15;100162.06;;;8.70;60.00
16664;BME280;8445;51.270;9.434;2023-04-10T07:09:45;100149.53;;;9.06;60.05
16664;BME280;8445;51.270;9.434;2023-04-10T07:12:11;100148.78;;;9.34;59.86
16664;BME280;8445;51.270;9.434;2023-04-10T07:14:36;100151.81;;;9.57;59.74
16664;BME280;8445;51.270;9.434;2023-04-10T07:17:01;100143.38;;;9.81;59.42
16664;BME280;8445;51.270;9.434;2023-04-10T07:19:27;100145.84;;;9.99;59.10
16664;BME280;8445;51.270;9.434;2023-04-10T07:21:52;100150.09;;;10.16;59.14
16664;BME280;8445;51.270;9.434;2023-04-10T07:24:20;100148.38;;;10.29;59.07
16664;BME280;8445;51.270;9.434;2023-04-10T07:26:46;100144.31;;;10.38;59.08
16664;BME280;8445;51.270;9.434;2023-04-10T07:29:12;100146.22;;;10.50;58.89
16664;BME280;8445;51.270;9.434;2023-04-10T07:31:38;100136.19;;;10.56;58.77
16664;BME280;8445;51.270;9.434;2023-04-10T07:34:04;100137.88;;;10.57;58.98
16664;BME280;8445;51.270;9.434;2023-04-10T07:36:29;100139.16;;;10.64;58.89
16664;BME280;8445;51.270;9.434;2023-04-10T07:38:56;100142.56;;;10.66;58.76
16664;BME280;8445;51.270;9.434;2023-04-10T07:41:21;100141.63;;;10.67;58.67
16664;BME280;8445;51.270;9.434;2023-04-10T07:43:48;100137.09;;;10.69;58.72
16664;BME280;8445;51.270;9.434;2023-04-10T07:46:16;100129.06;;;10.71;58.66
16664;BME280;8445;51.270;9.434;2023-04-10T07:48:46;100128.19;;;10.70;58.62
16664;BME280;8445;51.270;9.434;2023-04-10T07:51:16;100131.78;;;10.69;58.64
16664;BME280;8445;51.270;9.434;2023-04-10T07:53:41;100126.03;;;10.77;58.46
16664;BME280;8445;51.270;9.434;2023-04-10T07:56:13;100117.69;;;10.83;58.14
16664;BME280;8445;51.270;9.434;2023-04-10T07:58:38;100113.56;;;10.92;58.09
16664;BME280;8445;51.270;9.434;2023-04-10T08:01:04;100108.47;;;10.89;58.18
16664;BME280;8445;51.270;9.434;2023-04-10T08:03:36;100103.06;;;10.90;57.83
16664;BME280;8445;51.270;9.434;2023-04-10T08:06:02;100101.16;;;10.92;57.84
16664;BME280;8445;51.270;9.434;2023-04-10T08:08:28;100104.47;;;10.96;57.82
16664;BME280;8445;51.270;9.434;2023-04-10T08:10:53;100107.81;;;11.12;57.82
16664;BME280;8445;51.270;9.434;2023-04-10T08:13:19;100101.03;;;11.21;57.35
16664;BME280;8445;51.270;9.434;2023-04-10T08:15:44;100098.41;;;11.34;57.22
16664;BME280;8445;51.270;9.434;2023-04-10T08:18:09;100096.94;;;11.43;57.28
16664;BME280;8445;51.270;9.434;2023-04-10T08:20:35;100080.53;;;11.51;57.24
16664;BME280;8445;51.270;9.434;2023-04-10T08:23:01;100086.03;;;11.61;57.03
16664;BME280;8445;51.270;9.434;2023-04-10T08:25:26;100080.09;;;11.70;56.96
16664;BME280;8445;51.270;9.434;2023-04-10T08:27:52;100082.19;;;11.78;56.91
16664;BME280;8445;51.270;9.434;2023-04-10T08:30:17;100085.38;;;11.83;56.69
16664;BME280;8445;51.270;9.434;2023-04-10T08:32:43;100076.25;;;11.87;56.89
16664;BME280;8445;51.270;9.434;2023-04-10T08:35:08;100081.25;;;11.92;56.80
16664;BME280;8445;51.270;9.434;2023-04-10T08:37:34;100071.25;;;11.95;56.63
16664;BME280;8445;51.270;9.434;2023-04-10T08:39:59;100063.22;;;12.10;56.54
16664;BME280;8445;51.270;9.434;2023-04-10T08:42:25;100069.44;;;12.22;56.47
16664;BME280;8445;51.270;9.434;2023-04-10T08:44:50;100061.69;;;12.32;56.42
16664;BME280;8445;51.270;9.434;2023-04-10T08:47:19;100063.97;;;12.36;56.07
16664;BME280;8445;51.270;9.434;2023-04-10T08:49:59;100059.34;;;12.51;54.07
16664;BME280;8445;51.270;9.434;2023-04-10T08:52:29;100063.16;;;12.60;56.11
16664;BME280;8445;51.270;9.434;2023-04-10T08:54:59;100059.69;;;12.71;56.13
16664;BME280;8445;51.270;9.434;2023-04-10T08:57:27;100061.56;;;12.82;55.81
16664;BME280;8445;51.270;9.434;2023-04-10T08:59:53;100056.41;;;12.92;55.73
16664;BME280;8445;51.270;9.434;2023-04-10T09:02:23;100057.66;;;13.10;55.24
16664;BME280;8445;51.270;9.434;2023-04-10T09:04:51;100048.03;;;13.20;55.29
16664;BME280;8445;51.270;9.434;2023-04-10T09:07:20;100037.91;;;13.26;55.41
16664;BME280;8445;51.270;9.434;2023-04-10T09:09:47;100030.66;;;13.28;55.24
16664;BME280;8445;51.270;9.434;2023-04-10T09:12:13;100042.84;;;13.30;55.30
16664;BME280;8445;51.270;9.434;2023-04-10T09:14:41;100037.78;;;13.39;55.07
16664;BME280;8445;51.270;9.434;2023-04-10T09:17:10;100030.00;;;13.48;54.15
16664;BME280;8445;51.270;9.434;2023-04-10T09:19:36;100014.56;;;13.54;55.15
16664;BME280;8445;51.270;9.434;2023-04-10T09:22:02;100014.28;;;13.57;55.00
16664;BME280;8445;51.270;9.434;2023-04-10T09:24:27;100007.41;;;13.66;55.44
16664;BME280;8445;51.270;9.434;2023-04-10T09:26:53;99997.13;;;13.72;54.95
16664;BME280;8445;51.270;9.434;2023-04-10T09:29:19;99989.16;;;13.84;54.58
16664;BME280;8445;51.270;9.434;2023-04-10T09:31:45;99979.72;;;13.91;54.67
16664;BME280;8445;51.270;9.434;2023-04-10T09:34:19;99981.63;;;14.00;54.28
16664;BME280;8445;51.270;9.434;2023-04-10T09:36:59;99983.03;;;14.16;54.44
16664;BME280;8445;51.270;9.434;2023-04-10T09:39:35;99976.84;;;14.27;52.61
16664;BME280;8445;51.270;9.434;2023-04-10T09:42:03;99973.28;;;14.37;54.27
16664;BME280;8445;51.270;9.434;2023-04-10T09:44:33;99960.91;;;14.48;53.05
16664;BME280;8445;51.270;9.434;2023-04-10T09:47:20;99959.75;;;14.62;48.93
16664;BME280;8445;51.270;9.434;2023-04-10T09:49:47;99956.09;;;14.74;53.87
16664;BME280;8445;51.270;9.434;2023-04-10T09:52:21;99956.16;;;14.84;53.81
16664;BME280;8445;51.270;9.434;2023-04-10T09:54:47;99955.81;;;14.99;54.13
16664;BME280;8445;51.270;9.434;2023-04-10T09:57:17;99951.13;;;15.12;52.31
16664;BME280;8445;51.270;9.434;2023-04-10T09:59:48;99943.19;;;15.22;52.86
16664;BME280;8445;51.270;9.434;2023-04-10T10:02:16;99931.56;;;15.33;53.42
16664;BME280;8445;51.270;9.434;2023-04-10T10:04:44;99931.38;;;15.46;53.68
16664;BME280;8445;51.270;9.434;2023-04-10T10:07:11;99928.03;;;15.63;53.78
16664;BME280;8445;51.270;9.434;2023-04-10T10:09:37;99922.75;;;15.73;53.33
16664;BME280;8445;51.270;9.434;2023-04-10T10:12:03;99922.91;;;15.81;53.59
16664;BME280;8445;51.270;9.434;2023-04-10T10:14:30;99913.09;;;15.92;53.39
16664;BME280;8445;51.270;9.434;2023-04-10T10:17:00;99914.25;;;15.99;52.91
16664;BME280;8445;51.270;9.434;2023-04-10T10:19:30;99912.28;;;16.01;53.09
16664;BME280;8445;51.270;9.434;2023-04-10T10:21:59;99901.06;;;16.07;52.88
16664;BME280;8445;51.270;9.434;2023-04-10T10:24:26;99904.41;;;16.09;52.84
16664;BME280;8445;51.270;9.434;2023-04-10T10:26:54;99902.88;;;16.17;52.62
16664;BME280;8445;51.270;9.434;2023-04-10T10:29:20;99891.94;;;16.20;52.38
16664;BME280;8445;51.270;9.434;2023-04-10T10:31:48;99889.41;;;16.18;52.14
16664;BME280;8445;51.270;9.434;2023-04-10T10:34:14;99887.00;;;16.25;52.41
16664;BME280;8445;51.270;9.434;2023-04-10T10:36:41;99878.72;;;16.28;52.24
16664;BME280;8445;51.270;9.434;2023-04-10T10:45:16;99863.97;;;16.43;48.92
16664;BME280;8445;51.270;9.434;2023-04-10T10:47:53;99856.94;;;16.42;50.72
16664;BME280;8445;51.270;9.434;2023-04-10T10:50:19;99857.63;;;16.44;51.84
16664;BME280;8445;51.270;9.434;2023-04-10T10:52:47;99850.31;;;16.47;51.48
16664;BME280;8445;51.270;9.434;2023-04-10T10:57:53;99839.16;;;16.61;48.09
16664;BME280;8445;51.270;9.434;2023-04-10T11:00:20;99845.22;;;16.63;51.00
16664;BME280;8445;51.270;9.434;2023-04-10T11:06:16;99822.22;;;16.80;50.16
16664;BME280;8445;51.270;9.434;2023-04-10T11:08:50;99822.81;;;16.84;49.21
16664;BME280;8445;51.270;9.434;2023-04-10T11:11:23;99811.81;;;16.87;50.94
16664;BME280;8445;51.270;9.434;2023-04-10T11:16:14;99795.50;;;16.90;50.84
16664;BME280;8445;51.270;9.434;2023-04-10T11:21:21;99786.09;;;17.14;48.83
16664;BME280;8445;51.270;9.434;2023-04-10T11:31:38;99768.38;;;17.41;49.73
16664;BME280;8445;51.270;9.434;2023-04-10T11:34:05;99768.44;;;17.49;49.90
16664;BME280;8445;51.270;9.434;2023-04-10T11:36:42;99754.38;;;17.47;43.26
16664;BME280;8445;51.270;9.434;2023-04-10T11:39:09;99751.41;;;17.68;49.78
16664;BME280;8445;51.270;9.434;2023-04-10T11:41:42;99748.69;;;17.86;49.63
16664;BME280;8445;51.270;9.434;2023-04-10T11:44:09;99743.50;;;18.03;49.07
16664;BME280;8445;51.270;9.434;2023-04-10T11:46:37;99736.28;;;18.21;49.04
16664;BME280;8445;51.270;9.434;2023-04-10T11:49:04;99736.03;;;18.41;49.71
16664;BME280;8445;51.270;9.434;2023-04-10T11:51:30;99723.41;;;18.60;49.59
16664;BME280;8445;51.270;9.434;2023-04-10T11:54:10;99717.91;;;18.70;43.06
16664;BME280;8445;51.270;9.434;2023-04-10T11:56:40;99723.16;;;18.79;48.02
16664;BME280;8445;51.270;9.434;2023-04-10T11:59:07;99717.34;;;18.92;49.01
16664;BME280;8445;51.270;9.434;2023-04-10T12:01:41;99702.00;;;19.03;47.22
16664;BME280;8445;51.270;9.434;2023-04-10T12:04:13;99709.38;;;19.09;46.85
16664;BME280;8445;51.270;9.434;2023-04-10T12:06:47;99699.34;;;19.11;48.07
16664;BME280;8445;51.270;9.434;2023-04-10T12:09:14;99693.81;;;19.21;47.67
16664;BME280;8445;51.270;9.434;2023-04-10T12:11:55;99688.78;;;19.18;40.77
16664;BME280;8445;51.270;9.434;2023-04-10T12:14:35;99689.97;;;19.32;47.62
16664;BME280;8445;51.270;9.434;2023-04-10T12:17:03;99695.50;;;19.55;47.77
16664;BME280;8445;51.270;9.434;2023-04-10T12:19:29;99684.25;;;19.84;47.91
16664;BME280;8445;51.270;9.434;2023-04-10T12:21:57;99675.00;;;20.12;47.54
16664;BME280;8445;51.270;9.434;2023-04-10T12:27:23;99672.72;;;20.40;43.29
16664;BME280;8445;51.270;9.434;2023-04-10T12:29:50;99674.47;;;20.65;47.14
16664;BME280;8445;51.270;9.434;2023-04-10T12:32:16;99668.88;;;20.83;47.15
16664;BME280;8445;51.270;9.434;2023-04-10T12:34:52;99664.75;;;20.95;45.47
16664;BME280;8445;51.270;9.434;2023-04-10T12:37:21;99658.06;;;20.91;46.76
16664;BME280;8445;51.270;9.434;2023-04-10T12:39:47;99662.38;;;21.24;47.23
16664;BME280;8445;51.270;9.434;2023-04-10T12:42:25;99666.22;;;21.53;46.33
16664;BME280;8445;51.270;9.434;2023-04-10T12:44:56;99654.84;;;21.66;46.28
16664;BME280;8445;51.270;9.434;2023-04-10T12:47:22;99655.44;;;21.76;45.45
16664;BME280;8445;51.270;9.434;2023-04-10T12:50:08;99647.63;;;21.81;42.48
16664;BME280;8445;51.270;9.434;2023-04-10T12:52:38;99657.75;;;21.94;45.72
16664;BME280;8445;51.270;9.434;2023-04-10T12:55:15;99645.53;;;22.06;44.91
16664;BME280;8445;51.270;9.434;2023-04-10T12:57:45;99653.88;;;22.12;45.64
16664;BME280;8445;51.270;9.434;2023-04-10T13:00:16;99641.44;;;22.11;44.46
16664;BME280;8445;51.270;9.434;2023-04-10T13:02:42;99648.41;;;22.05;45.02
16664;BME280;8445;51.270;9.434;2023-04-10T13:05:08;99637.53;;;22.13;44.46
16664;BME280;8445;51.270;9.434;2023-04-10T13:07:34;99631.13;;;22.29;44.82
16664;BME280;8445;51.270;9.434;2023-04-10T13:10:00;99641.25;;;22.27;44.54
16664;BME280;8445;51.270;9.434;2023-04-10T13:12:28;99624.16;;;22.20;43.51
16664;BME280;8445;51.270;9.434;2023-04-10T13:14:54;99625.09;;;21.97;42.78
16664;BME280;8445;51.270;9.434;2023-04-10T13:17:21;99627.28;;;21.64;43.21
16664;BME280;8445;51.270;9.434;2023-04-10T13:19:46;99616.59;;;21.32;43.35
16664;BME280;8445;51.270;9.434;2023-04-10T13:22:12;99617.09;;;21.12;43.18
16664;BME280;8445;51.270;9.434;2023-04-10T13:24:37;99620.25;;;20.93;43.05
16664;BME280;8445;51.270;9.434;2023-04-10T13:27:03;99606.75;;;20.78;43.06
16664;BME280;8445;51.270;9.434;2023-04-10T13:29:28;99595.88;;;20.63;42.88
16664;BME280;8445;51.270;9.434;2023-04-10T13:31:54;99588.53;;;20.56;42.97
16664;BME280;8445;51.270;9.434;2023-04-10T13:34:20;99588.44;;;20.41;42.14
16664;BME280;8445;51.270;9.434;2023-04-10T13:36:45;99590.53;;;20.31;42.21
16664;BME280;8445;51.270;9.434;2023-04-10T13:39:10;99576.94;;;20.24;41.99
16664;BME280;8445;51.270;9.434;2023-04-10T13:41:36;99578.00;;;20.07;41.11
16664;BME280;8445;51.270;9.434;2023-04-10T13:44:01;99567.34;;;19.90;41.54
16664;BME280;8445;51.270;9.434;2023-04-10T13:46:27;99565.81;;;19.79;41.67
16664;BME280;8445;51.270;9.434;2023-04-10T13:48:52;99555.28;;;19.69;41.44
16664;BME280;8445;51.270;9.434;2023-04-10T13:51:18;99550.28;;;19.58;41.37
16664;BME280;8445;51.270;9.434;2023-04-10T13:53:43;99556.19;;;19.45;41.24
16664;BME280;8445;51.270;9.434;2023-04-10T13:56:09;99547.66;;;19.42;41.20
16664;BME280;8445;51.270;9.434;2023-04-10T13:58:35;99541.28;;;19.34;41.18
16664;BME280;8445;51.270;9.434;2023-04-10T14:01:00;99537.28;;;19.30;41.40